sensor_id;sensor_type;location;lat;lon;timestamp;temperature;humidity
25068;DHT22;13063;49.648;10.692;2022-08-19T00:00:05;22.20;99.90
25068;DHT22;13063;49.648;10.692;2022-08-19T00:02:32;22.20;99.90
25068;DHT22;13063;49.648;10.692;2022-08-19T00:04:58;22.20;99.90
25068;DHT22;13063;49.648;10.692;2022-08-19T00:07:23;22.20;99.90
25068;DHT22;13063;49.648;10.692;2022-08-19T00:09:48;22.20;99.90
25068;DHT22;13063;49.648;10.692;2022-08-19T00:12:14;22.20;99.90
25068;DHT22;13063;49.648;10.692;2022-08-19T00:14:40;22.10;99.90
25068;DHT22;13063;49.648;10.692;2022-08-19T00:17:06;21.90;99.90
25068;DHT22;13063;49.648;10.692;2022-08-19T00:19:32;21.90;99.90
25068;DHT22;13063;49.648;10.692;2022-08-19T00:21:57;22.00;99.90
25068;DHT22;13063;49.648;10.692;2022-08-19T00:24:23;22.00;99.90
25068;DHT22;13063;49.648;10.692;2022-08-19T00:26:49;21.80;99.90
25068;DHT22;13063;49.648;10.692;2022-08-19T00:29:16;21.80;99.90
25068;DHT22;13063;49.648;10.692;2022-08-19T00:31:42;21.80;99.90
25068;DHT22;13063;49.648;10.692;2022-08-19T00:34:08;21.60;99.90
25068;DHT22;13063;49.648;10.692;2022-08-19T00:36:33;21.70;99.90
25068;DHT22;13063;49.648;10.692;2022-08-19T00:38:59;21.70;99.90
25068;DHT22;13063;49.648;10.692;2022-08-19T00:41:25;21.70;99.90
25068;DHT22;13063;49.648;10.692;2022-08-19T00:43:58;21.90;99.90
25068;DHT22;13063;49.648;10.692;2022-08-19T00:46:23;21.80;99.90
25068;DHT22;13063;49.648;10.692;2022-08-19T00:48:49;21.80;99.90
25068;DHT22;13063;49.648;10.692;2022-08-19T00:51:14;21.90;99.90
25068;DHT22;13063;49.648;10.692;2022-08-19T00:53:40;21.90;99.90
25068;DHT22;13063;49.648;10.692;2022-08-19T00:56:05;21.90;99.90
25068;DHT22;13063;49.648;10.692;2022-08-19T00:58:32;21.80;99.90
25068;DHT22;13063;49.648;10.692;2022-08-19T01:00:59;21.70;99.90
25068;DHT22;13063;49.648;10.692;2022-08-19T01:03:24;21.70;99.90
25068;DHT22;13063;49.648;10.692;2022-08-19T01:05:50;21.80;99.90
25068;DHT22;13063;49.648;10.692;2022-08-19T01:08:17;21.70;99.90
25068;DHT22;13063;49.648;10.692;2022-08-19T01:10:45;21.70;99.90
25068;DHT22;13063;49.648;10.692;2022-08-19T01:13:11;21.80;99.90
25068;DHT22;13063;49.648;10.692;2022-08-19T01:15:40;21.90;99.90
25068;DHT22;13063;49.648;10.692;2022-08-19T01:18:08;21.90;99.90
25068;DHT22;13063;49.648;10.692;2022-08-19T01:20:34;22.00;99.90
25068;DHT22;13063;49.648;10.692;2022-08-19T01:23:00;22.00;99.90
25068;DHT22;13063;49.648;10.692;2022-08-19T01:25:28;21.90;99.90
25068;DHT22;13063;49.648;10.692;2022-08-19T01:27:54;22.00;99.90
25068;DHT22;13063;49.648;10.692;2022-08-19T01:30:23;21.90;99.90
25068;DHT22;13063;49.648;10.692;2022-08-19T01:32:49;21.90;99.90
25068;DHT22;13063;49.648;10.692;2022-08-19T01:35:15;21.80;99.90
25068;DHT22;13063;49.648;10.692;2022-08-19T01:37:51;21.70;99.90
25068;DHT22;13063;49.648;10.692;2022-08-19T01:40:18;21.70;99.90
25068;DHT22;13063;49.648;10.692;2022-08-19T01:42:46;21.60;99.90
25068;DHT22;13063;49.648;10.692;2022-08-19T01:45:12;21.60;99.90
25068;DHT22;13063;49.648;10.692;2022-08-19T01:47:38;21.60;99.90
25068;DHT22;13063;49.648;10.692;2022-08-19T01:50:04;21.80;99.90
25068;DHT22;13063;49.648;10.692;2022-08-19T01:52:30;21.80;99.90
25068;DHT22;13063;49.648;10.692;2022-08-19T01:54:55;21.90;99.90
25068;DHT22;13063;49.648;10.692;2022-08-19T01:57:21;21.90;99.90
25068;DHT22;13063;49.648;10.692;2022-08-19T01:59:46;21.80;99.90
25068;DHT22;13063;49.648;10.692;2022-08-19T02:02:12;21.70;99.90
25068;DHT22;13063;49.648;10.692;2022-08-19T02:04:37;21.60;99.90
25068;DHT22;13063;49.648;10.692;2022-08-19T02:07:03;21.70;99.90
25068;DHT22;13063;49.648;10.692;2022-08-19T02:09:30;21.80;99.90
25068;DHT22;13063;49.648;10.692;2022-08-19T02:11:56;21.80;99.90
25068;DHT22;13063;49.648;10.692;2022-08-19T02:14:21;21.90;99.90
25068;DHT22;13063;49.648;10.692;2022-08-19T02:16:47;21.70;99.90
25068;DHT22;13063;49.648;10.692;2022-08-19T02:19:12;21.60;99.90
25068;DHT22;13063;49.648;10.692;2022-08-19T02:21:38;21.50;99.90
25068;DHT22;13063;49.648;10.692;2022-08-19T02:24:04;21.40;99.90
25068;DHT22;13063;49.648;10.692;2022-08-19T02:26:29;21.20;99.90
25068;DHT22;13063;49.648;10.692;2022-08-19T02:28:55;21.00;99.90
25068;DHT22;13063;49.648;10.692;2022-08-19T02:31:22;21.00;99.90
25068;DHT22;13063;49.648;10.692;2022-08-19T02:33:48;20.80;99.90
25068;DHT22;13063;49.648;10.692;2022-08-19T02:36:14;20.70;99.90
25068;DHT22;13063;49.648;10.692;2022-08-19T02:38:40;20.60;99.90
25068;DHT22;13063;49.648;10.692;2022-08-19T02:41:17;20.70;99.90
25068;DHT22;13063;49.648;10.692;2022-08-19T02:43:42;20.80;99.90
25068;DHT22;13063;49.648;10.692;2022-08-19T02:46:12;20.90;99.90
25068;DHT22;13063;49.648;10.692;2022-08-19T02:48:38;21.10;99.90
25068;DHT22;13063;49.648;10.692;2022-08-19T02:51:03;21.20;99.90
25068;DHT22;13063;49.648;10.692;2022-08-19T02:53:29;21.40;99.90
25068;DHT22;13063;49.648;10.692;2022-08-19T02:55:54;21.60;99.90
25068;DHT22;13063;49.648;10.692;2022-08-19T02:58:20;21.60;99.90
25068;DHT22;13063;49.648;10.692;2022-08-19T03:00:49;21.50;99.90
25068;DHT22;13063;49.648;10.692;2022-08-19T03:03:16;21.30;99.90
25068;DHT22;13063;49.648;10.692;2022-08-19T03:05:42;21.00;99.90
25068;DHT22;13063;49.648;10.692;2022-08-19T03:08:08;20.90;99.90
25068;DHT22;13063;49.648;10.692;2022-08-19T03:10:33;21.10;99.90
25068;DHT22;13063;49.648;10.692;2022-08-19T03:13:04;21.20;99.90
25068;DHT22;13063;49.648;10.692;2022-08-19T03:15:30;21.30;99.90
25068;DHT22;13063;49.648;10.692;2022-08-19T03:17:55;21.40;99.90
25068;DHT22;13063;49.648;10.692;2022-08-19T03:20:21;21.40;99.90
25068;DHT22;13063;49.648;10.692;2022-08-19T03:22:46;21.60;99.90
25068;DHT22;13063;49.648;10.692;2022-08-19T03:25:12;21.70;99.90
25068;DHT22;13063;49.648;10.692;2022-08-19T03:27:37;21.70;99.90
25068;DHT22;13063;49.648;10.692;2022-08-19T03:30:03;21.70;99.90
25068;DHT22;13063;49.648;10.692;2022-08-19T03:32:29;21.70;99.90
25068;DHT22;13063;49.648;10.692;2022-08-19T03:34:55;21.70;99.90
25068;DHT22;13063;49.648;10.692;2022-08-19T03:37:20;21.70;99.90
25068;DHT22;13063;49.648;10.692;2022-08-19T03:39:47;21.60;99.90
25068;DHT22;13063;49.648;10.692;2022-08-19T03:42:13;21.40;99.90
25068;DHT22;13063;49.648;10.692;2022-08-19T03:44:38;21.40;99.90
25068;DHT22;13063;49.648;10.692;2022-08-19T03:47:04;21.50;99.90
25068;DHT22;13063;49.648;10.692;2022-08-19T03:49:31;21.50;99.90
25068;DHT22;13063;49.648;10.692;2022-08-19T03:51:58;21.40;99.90
25068;DHT22;13063;49.648;10.692;2022-08-19T03:54:26;21.40;99.90
25068;DHT22;13063;49.648;10.692;2022-08-19T03:56:52;21.40;99.90
25068;DHT22;13063;49.648;10.692;2022-08-19T03:59:20;21.30;99.90
25068;DHT22;13063;49.648;10.692;2022-08-19T04:01:46;21.40;99.90
25068;DHT22;13063;49.648;10.692;2022-08-19T04:04:11;21.50;99.90
25068;DHT22;13063;49.648;10.692;2022-08-19T04:06:37;21.50;99.90
25068;DHT22;13063;49.648;10.692;2022-08-19T04:09:04;21.60;99.90
25068;DHT22;13063;49.648;10.692;2022-08-19T04:11:33;21.60;99.90
25068;DHT22;13063;49.648;10.692;2022-08-19T04:13:58;21.60;99.90
25068;DHT22;13063;49.648;10.692;2022-08-19T04:16:27;21.60;99.90
25068;DHT22;13063;49.648;10.692;2022-08-19T04:18:56;21.50;99.90
25068;DHT22;13063;49.648;10.692;2022-08-19T04:21:25;21.40;99.90
25068;DHT22;13063;49.648;10.692;2022-08-19T04:23:51;21.30;99.90
25068;DHT22;13063;49.648;10.692;2022-08-19T04:26:18;21.30;99.90
25068;DHT22;13063;49.648;10.692;2022-08-19T04:28:45;21.40;99.90
25068;DHT22;13063;49.648;10.692;2022-08-19T04:31:14;21.30;99.90
25068;DHT22;13063;49.648;10.692;2022-08-19T04:33:40;21.10;99.90
25068;DHT22;13063;49.648;10.692;2022-08-19T04:36:06;21.30;99.90
25068;DHT22;13063;49.648;10.692;2022-08-19T04:38:31;21.30;99.90
25068;DHT22;13063;49.648;10.692;2022-08-19T04:40:57;21.30;99.90
25068;DHT22;13063;49.648;10.692;2022-08-19T04:43:41;21.30;99.90
25068;DHT22;13063;49.648;10.692;2022-08-19T04:48:32;21.40;99.90
25068;DHT22;13063;49.648;10.692;2022-08-19T04:50:57;21.40;99.90
25068;DHT22;13063;49.648;10.692;2022-08-19T04:53:24;21.50;99.90
25068;DHT22;13063;49.648;10.692;2022-08-19T04:55:50;21.50;99.90
25068;DHT22;13063;49.648;10.692;2022-08-19T04:58:16;21.60;99.90
25068;DHT22;13063;49.648;10.692;2022-08-19T05:00:42;21.50;99.90
25068;DHT22;13063;49.648;10.692;2022-08-19T05:03:08;21.40;99.90
25068;DHT22;13063;49.648;10.692;2022-08-19T05:05:37;21.30;99.90
25068;DHT22;13063;49.648;10.692;2022-08-19T05:08:03;21.20;99.90
25068;DHT22;13063;49.648;10.692;2022-08-19T05:10:29;21.10;99.90
25068;DHT22;13063;49.648;10.692;2022-08-19T05:12:55;21.30;99.90
25068;DHT22;13063;49.648;10.692;2022-08-19T05:15:22;21.40;99.90
25068;DHT22;13063;49.648;10.692;2022-08-19T05:17:48;21.40;99.90
25068;DHT22;13063;49.648;10.692;2022-08-19T05:20:33;21.20;99.90
25068;DHT22;13063;49.648;10.692;2022-08-19T05:23:17;21.30;99.90
25068;DHT22;13063;49.648;10.692;2022-08-19T05:25:43;21.30;99.90
25068;DHT22;13063;49.648;10.692;2022-08-19T05:28:09;21.40;99.90
25068;DHT22;13063;49.648;10.692;2022-08-19T05:30:35;21.30;99.90
25068;DHT22;13063;49.648;10.692;2022-08-19T05:33:00;21.30;99.90
25068;DHT22;13063;49.648;10.692;2022-08-19T05:35:26;21.10;99.90
25068;DHT22;13063;49.648;10.692;2022-08-19T05:37:51;20.90;99.90
25068;DHT22;13063;49.648;10.692;2022-08-19T05:40:19;20.80;99.90
25068;DHT22;13063;49.648;10.692;2022-08-19T05:42:45;20.80;99.90
25068;DHT22;13063;49.648;10.692;2022-08-19T05:45:11;20.90;99.90
25068;DHT22;13063;49.648;10.692;2022-08-19T05:47:36;20.90;99.90
25068;DHT22;13063;49.648;10.692;2022-08-19T05:50:02;20.80;99.90
25068;DHT22;13063;49.648;10.692;2022-08-19T05:52:29;20.80;99.90
25068;DHT22;13063;49.648;10.692;2022-08-19T05:54:55;20.80;99.90
25068;DHT22;13063;49.648;10.692;2022-08-19T05:57:21;20.70;99.90
25068;DHT22;13063;49.648;10.692;2022-08-19T05:59:46;20.90;99.90
25068;DHT22;13063;49.648;10.692;2022-08-19T06:02:13;21.10;99.90
25068;DHT22;13063;49.648;10.692;2022-08-19T06:04:39;21.20;99.90
25068;DHT22;13063;49.648;10.692;2022-08-19T06:07:08;21.30;99.90
25068;DHT22;13063;49.648;10.692;2022-08-19T06:09:33;21.30;99.90
25068;DHT22;13063;49.648;10.692;2022-08-19T06:11:59;21.40;99.90
25068;DHT22;13063;49.648;10.692;2022-08-19T06:14:36;21.40;99.90
25068;DHT22;13063;49.648;10.692;2022-08-19T06:17:02;21.40;99.90
25068;DHT22;13063;49.648;10.692;2022-08-19T06:19:28;21.40;99.90
25068;DHT22;13063;49.648;10.692;2022-08-19T06:21:55;21.40;99.90
25068;DHT22;13063;49.648;10.692;2022-08-19T06:24:22;21.30;99.90
25068;DHT22;13063;49.648;10.692;2022-08-19T06:26:51;21.40;99.90
25068;DHT22;13063;49.648;10.692;2022-08-19T06:29:17;21.50;99.90
25068;DHT22;13063;49.648;10.692;2022-08-19T06:31:44;21.50;99.90
25068;DHT22;13063;49.648;10.692;2022-08-19T06:34:09;21.60;99.90
25068;DHT22;13063;49.648;10.692;2022-08-19T06:36:36;21.60;99.90
25068;DHT22;13063;49.648;10.692;2022-08-19T06:39:04;21.60;99.90
25068;DHT22;13063;49.648;10.692;2022-08-19T06:41:31;21.50;99.90
25068;DHT22;13063;49.648;10.692;2022-08-19T06:43:59;21.50;99.90
25068;DHT22;13063;49.648;10.692;2022-08-19T06:46:24;21.50;99.90
25068;DHT22;13063;49.648;10.692;2022-08-19T06:48:51;21.40;99.90
25068;DHT22;13063;49.648;10.692;2022-08-19T06:51:18;21.60;99.90
25068;DHT22;13063;49.648;10.692;2022-08-19T06:53:47;21.70;99.90
25068;DHT22;13063;49.648;10.692;2022-08-19T06:56:14;21.70;99.90
25068;DHT22;13063;49.648;10.692;2022-08-19T06:58:40;21.80;99.90
25068;DHT22;13063;49.648;10.692;2022-08-19T07:01:05;21.80;99.90
25068;DHT22;13063;49.648;10.692;2022-08-19T07:03:31;21.80;99.90
25068;DHT22;13063;49.648;10.692;2022-08-19T07:05:58;22.00;99.90
25068;DHT22;13063;49.648;10.692;2022-08-19T07:08:27;22.10;99.90
25068;DHT22;13063;49.648;10.692;2022-08-19T07:10:52;22.20;99.90
25068;DHT22;13063;49.648;10.692;2022-08-19T07:13:18;22.20;99.90
25068;DHT22;13063;49.648;10.692;2022-08-19T07:15:44;22.20;99.90
25068;DHT22;13063;49.648;10.692;2022-08-19T07:18:11;22.20;99.90
25068;DHT22;13063;49.648;10.692;2022-08-19T07:20:37;22.10;99.90
25068;DHT22;13063;49.648;10.692;2022-08-19T07:23:04;22.00;99.90
25068;DHT22;13063;49.648;10.692;2022-08-19T07:25:29;21.90;99.90
25068;DHT22;13063;49.648;10.692;2022-08-19T07:27:55;21.80;99.90
25068;DHT22;13063;49.648;10.692;2022-08-19T07:30:20;21.80;99.90
25068;DHT22;13063;49.648;10.692;2022-08-19T07:32:47;21.80;99.90
25068;DHT22;13063;49.648;10.692;2022-08-19T07:35:13;21.80;99.90
25068;DHT22;13063;49.648;10.692;2022-08-19T07:37:38;21.80;99.90
25068;DHT22;13063;49.648;10.692;2022-08-19T07:40:09;21.80;99.90
25068;DHT22;13063;49.648;10.692;2022-08-19T07:42:34;21.70;99.90
25068;DHT22;13063;49.648;10.692;2022-08-19T07:45:00;21.70;99.90
25068;DHT22;13063;49.648;10.692;2022-08-19T07:47:25;21.70;99.90
25068;DHT22;13063;49.648;10.692;2022-08-19T07:49:52;21.70;99.90
25068;DHT22;13063;49.648;10.692;2022-08-19T07:52:18;21.70;99.90
25068;DHT22;13063;49.648;10.692;2022-08-19T07:54:43;21.70;99.90
25068;DHT22;13063;49.648;10.692;2022-08-19T07:57:09;21.80;99.90
25068;DHT22;13063;49.648;10.692;2022-08-19T07:59:34;21.90;99.90
25068;DHT22;13063;49.648;10.692;2022-08-19T08:02:00;21.90;99.90
25068;DHT22;13063;49.648;10.692;2022-08-19T08:04:26;21.90;99.90
25068;DHT22;13063;49.648;10.692;2022-08-19T08:07:11;22.00;99.90
25068;DHT22;13063;49.648;10.692;2022-08-19T08:09:55;21.90;99.90
25068;DHT22;13063;49.648;10.692;2022-08-19T08:12:22;21.90;99.90
25068;DHT22;13063;49.648;10.692;2022-08-19T08:14:51;21.90;99.90
25068;DHT22;13063;49.648;10.692;2022-08-19T08:17:19;21.90;99.90
25068;DHT22;13063;49.648;10.692;2022-08-19T08:19:45;21.90;99.90
25068;DHT22;13063;49.648;10.692;2022-08-19T08:22:11;21.90;99.90
25068;DHT22;13063;49.648;10.692;2022-08-19T08:24:59;21.90;99.90
25068;DHT22;13063;49.648;10.692;2022-08-19T08:27:25;21.80;99.90
25068;DHT22;13063;49.648;10.692;2022-08-19T08:29:54;21.80;99.90
25068;DHT22;13063;49.648;10.692;2022-08-19T08:32:19;21.90;99.90
25068;DHT22;13063;49.648;10.692;2022-08-19T08:34:45;22.00;99.90
25068;DHT22;13063;49.648;10.692;2022-08-19T08:37:10;22.00;99.90
25068;DHT22;13063;49.648;10.692;2022-08-19T08:39:36;22.10;99.90
25068;DHT22;13063;49.648;10.692;2022-08-19T08:42:06;22.10;99.90
25068;DHT22;13063;49.648;10.692;2022-08-19T08:47:02;22.10;99.90
25068;DHT22;13063;49.648;10.692;2022-08-19T08:50:18;22.10;99.90
25068;DHT22;13063;49.648;10.692;2022-08-19T08:52:20;22.10;99.90
25068;DHT22;13063;49.648;10.692;2022-08-19T08:54:47;22.10;99.90
25068;DHT22;13063;49.648;10.692;2022-08-19T08:57:15;22.10;99.90
25068;DHT22;13063;49.648;10.692;2022-08-19T08:59:43;22.30;99.90
25068;DHT22;13063;49.648;10.692;2022-08-19T09:02:10;22.30;99.90
25068;DHT22;13063;49.648;10.692;2022-08-19T09:04:36;22.30;99.90
25068;DHT22;13063;49.648;10.692;2022-08-19T09:09:38;22.30;99.90
25068;DHT22;13063;49.648;10.692;2022-08-19T09:17:14;23.00;99.90
25068;DHT22;13063;49.648;10.692;2022-08-19T09:22:14;23.00;99.90
25068;DHT22;13063;49.648;10.692;2022-08-19T09:24:39;23.00;99.90
25068;DHT22;13063;49.648;10.692;2022-08-19T09:27:06;22.90;99.90
25068;DHT22;13063;49.648;10.692;2022-08-19T09:29:31;22.90;99.90
25068;DHT22;13063;49.648;10.692;2022-08-19T09:31:56;22.90;99.90
25068;DHT22;13063;49.648;10.692;2022-08-19T09:34:22;22.80;99.90
25068;DHT22;13063;49.648;10.692;2022-08-19T09:36:48;22.70;99.90
25068;DHT22;13063;49.648;10.692;2022-08-19T09:39:19;22.70;99.90
25068;DHT22;13063;49.648;10.692;2022-08-19T09:41:45;22.70;99.90
25068;DHT22;13063;49.648;10.692;2022-08-19T09:44:10;22.70;99.90
25068;DHT22;13063;49.648;10.692;2022-08-19T09:46:37;22.60;99.90
25068;DHT22;13063;49.648;10.692;2022-08-19T09:49:02;22.60;99.90
25068;DHT22;13063;49.648;10.692;2022-08-19T09:51:31;22.60;99.90
25068;DHT22;13063;49.648;10.692;2022-08-19T09:53:58;22.60;99.90
25068;DHT22;13063;49.648;10.692;2022-08-19T09:56:24;22.60;99.90
25068;DHT22;13063;49.648;10.692;2022-08-19T09:58:49;22.70;99.90
25068;DHT22;13063;49.648;10.692;2022-08-19T10:01:19;22.80;99.90
25068;DHT22;13063;49.648;10.692;2022-08-19T10:03:46;22.80;99.90
25068;DHT22;13063;49.648;10.692;2022-08-19T10:06:12;22.80;99.90
25068;DHT22;13063;49.648;10.692;2022-08-19T10:08:38;22.70;99.90
25068;DHT22;13063;49.648;10.692;2022-08-19T10:11:05;22.80;99.90
25068;DHT22;13063;49.648;10.692;2022-08-19T10:13:31;22.80;99.90
25068;DHT22;13063;49.648;10.692;2022-08-19T10:16:08;22.80;99.90
25068;DHT22;13063;49.648;10.692;2022-08-19T10:18:33;22.70;99.90
25068;DHT22;13063;49.648;10.692;2022-08-19T10:21:07;22.90;99.90
25068;DHT22;13063;49.648;10.692;2022-08-19T10:23:34;23.10;99.90
25068;DHT22;13063;49.648;10.692;2022-08-19T10:26:00;23.40;99.90
25068;DHT22;13063;49.648;10.692;2022-08-19T10:28:26;23.60;99.90
25068;DHT22;13063;49.648;10.692;2022-08-19T10:30:51;23.70;99.90
25068;DHT22;13063;49.648;10.692;2022-08-19T10:33:17;23.80;99.90
25068;DHT22;13063;49.648;10.692;2022-08-19T10:35:44;24.40;99.90
25068;DHT22;13063;49.648;10.692;2022-08-19T10:38:11;24.90;99.90
25068;DHT22;13063;49.648;10.692;2022-08-19T10:40:37;25.20;99.90
25068;DHT22;13063;49.648;10.692;2022-08-19T10:43:03;25.00;99.90
25068;DHT22;13063;49.648;10.692;2022-08-19T10:45:28;24.80;99.90
25068;DHT22;13063;49.648;10.692;2022-08-19T10:47:54;24.60;99.90
25068;DHT22;13063;49.648;10.692;2022-08-19T10:50:19;24.50;99.90
25068;DHT22;13063;49.648;10.692;2022-08-19T10:53:05;24.40;99.90
25068;DHT22;13063;49.648;10.692;2022-08-19T10:55:31;24.30;99.90
25068;DHT22;13063;49.648;10.692;2022-08-19T10:58:16;24.30;99.90
25068;DHT22;13063;49.648;10.692;2022-08-19T11:00:42;24.20;99.90
25068;DHT22;13063;49.648;10.692;2022-08-19T11:03:08;24.10;99.90
25068;DHT22;13063;49.648;10.692;2022-08-19T11:05:34;24.10;99.90
25068;DHT22;13063;49.648;10.692;2022-08-19T11:07:59;24.00;99.90
25068;DHT22;13063;49.648;10.692;2022-08-19T11:10:24;24.00;99.90
25068;DHT22;13063;49.648;10.692;2022-08-19T11:12:50;23.90;99.90
25068;DHT22;13063;49.648;10.692;2022-08-19T11:15:20;24.00;99.90
25068;DHT22;13063;49.648;10.692;2022-08-19T11:17:45;24.00;99.90
25068;DHT22;13063;49.648;10.692;2022-08-19T11:20:11;24.00;99.90
25068;DHT22;13063;49.648;10.692;2022-08-19T11:22:37;23.90;99.90
25068;DHT22;13063;49.648;10.692;2022-08-19T11:25:03;23.90;99.90
25068;DHT22;13063;49.648;10.692;2022-08-19T11:27:29;23.80;99.90
25068;DHT22;13063;49.648;10.692;2022-08-19T11:29:55;23.80;99.90
25068;DHT22;13063;49.648;10.692;2022-08-19T11:32:20;23.70;99.90
25068;DHT22;13063;49.648;10.692;2022-08-19T11:34:46;23.70;99.90
25068;DHT22;13063;49.648;10.692;2022-08-19T11:37:11;23.60;99.90
25068;DHT22;13063;49.648;10.692;2022-08-19T11:39:37;23.60;99.90
25068;DHT22;13063;49.648;10.692;2022-08-19T11:42:03;23.50;99.90
25068;DHT22;13063;49.648;10.692;2022-08-19T11:44:49;23.40;99.90
25068;DHT22;13063;49.648;10.692;2022-08-19T11:47:15;23.30;99.90
25068;DHT22;13063;49.648;10.692;2022-08-19T11:49:40;23.30;99.90
25068;DHT22;13063;49.648;10.692;2022-08-19T11:52:06;23.20;99.90
25068;DHT22;13063;49.648;10.692;2022-08-19T11:54:32;23.10;99.90
25068;DHT22;13063;49.648;10.692;2022-08-19T11:56:58;23.00;99.90
25068;DHT22;13063;49.648;10.692;2022-08-19T11:59:23;23.00;99.90
25068;DHT22;13063;49.648;10.692;2022-08-19T12:01:49;22.90;99.90
25068;DHT22;13063;49.648;10.692;2022-08-19T12:04:14;23.00;99.90
25068;DHT22;13063;49.648;10.692;2022-08-19T12:06:40;23.00;99.90
25068;DHT22;13063;49.648;10.692;2022-08-19T12:09:07;22.90;99.90
25068;DHT22;13063;49.648;10.692;2022-08-19T12:11:34;22.90;99.90
25068;DHT22;13063;49.648;10.692;2022-08-19T12:13:59;22.90;99.90
25068;DHT22;13063;49.648;10.692;2022-08-19T12:16:26;22.90;99.90
25068;DHT22;13063;49.648;10.692;2022-08-19T12:18:52;22.90;99.90
25068;DHT22;13063;49.648;10.692;2022-08-19T12:21:19;23.00;99.90
25068;DHT22;13063;49.648;10.692;2022-08-19T12:23:46;23.00;99.90
25068;DHT22;13063;49.648;10.692;2022-08-19T12:26:12;23.00;99.90
25068;DHT22;13063;49.648;10.692;2022-08-19T12:28:37;23.00;99.90
25068;DHT22;13063;49.648;10.692;2022-08-19T12:31:03;23.00;99.90
25068;DHT22;13063;49.648;10.692;2022-08-19T12:33:29;23.00;99.90
25068;DHT22;13063;49.648;10.692;2022-08-19T12:35:54;23.00;99.90
25068;DHT22;13063;49.648;10.692;2022-08-19T12:38:20;23.00;99.90
25068;DHT22;13063;49.648;10.692;2022-08-19T12:40:48;23.00;99.90
25068;DHT22;13063;49.648;10.692;2022-08-19T12:43:15;23.00;99.90
25068;DHT22;13063;49.648;10.692;2022-08-19T12:45:43;23.00;99.90
25068;DHT22;13063;49.648;10.692;2022-08-19T12:48:10;23.00;99.90
25068;DHT22;13063;49.648;10.692;2022-08-19T12:50:38;22.90;99.90
25068;DHT22;13063;49.648;10.692;2022-08-19T12:53:04;22.90;99.90
25068;DHT22;13063;49.648;10.692;2022-08-19T12:55:30;22.90;99.90
25068;DHT22;13063;49.648;10.692;2022-08-19T12:57:55;22.90;99.90
25068;DHT22;13063;49.648;10.692;2022-08-19T13:00:22;22.90;99.90
25068;DHT22;13063;49.648;10.692;2022-08-19T13:02:49;22.90;99.90
25068;DHT22;13063;49.648;10.692;2022-08-19T13:05:19;23.00;99.90
25068;DHT22;13063;49.648;10.692;2022-08-19T13:07:46;23.10;99.90
25068;DHT22;13063;49.648;10.692;2022-08-19T13:10:12;23.10;99.90
25068;DHT22;13063;49.648;10.692;2022-08-19T13:12:38;23.10;99.90
25068;DHT22;13063;49.648;10.692;2022-08-19T13:15:04;23.10;99.90
25068;DHT22;13063;49.648;10.692;2022-08-19T13:17:30;23.10;99.90
25068;DHT22;13063;49.648;10.692;2022-08-19T13:19:56;23.10;99.90
25068;DHT22;13063;49.648;10.692;2022-08-19T13:22:21;23.20;99.90
25068;DHT22;13063;49.648;10.692;2022-08-19T13:24:47;23.10;99.90
25068;DHT22;13063;49.648;10.692;2022-08-19T13:27:13;23.10;99.90
25068;DHT22;13063;49.648;10.692;2022-08-19T13:29:39;23.10;99.90
25068;DHT22;13063;49.648;10.692;2022-08-19T13:32:23;23.00;99.90
25068;DHT22;13063;49.648;10.692;2022-08-19T13:35:07;23.00;99.90
25068;DHT22;13063;49.648;10.692;2022-08-19T13:37:33;22.90;99.90
25068;DHT22;13063;49.648;10.692;2022-08-19T13:40:08;22.90;99.90
25068;DHT22;13063;49.648;10.692;2022-08-19T13:42:38;22.90;99.90
25068;DHT22;13063;49.648;10.692;2022-08-19T13:45:04;22.90;99.90
25068;DHT22;13063;49.648;10.692;2022-08-19T13:47:32;22.90;99.90
25068;DHT22;13063;49.648;10.692;2022-08-19T13:50:00;22.90;99.90
25068;DHT22;13063;49.648;10.692;2022-08-19T13:52:25;22.90;99.90
25068;DHT22;13063;49.648;10.692;2022-08-19T13:54:51;22.80;99.90
25068;DHT22;13063;49.648;10.692;2022-08-19T13:57:16;22.80;99.90
25068;DHT22;13063;49.648;10.692;2022-08-19T13:59:42;22.80;99.90
25068;DHT22;13063;49.648;10.692;2022-08-19T14:02:07;22.90;99.90
25068;DHT22;13063;49.648;10.692;2022-08-19T14:04:33;22.90;99.90
25068;DHT22;13063;49.648;10.692;2022-08-19T14:06:58;22.90;99.90
25068;DHT22;13063;49.648;10.692;2022-08-19T14:09:23;22.90;99.90
25068;DHT22;13063;49.648;10.692;2022-08-19T14:11:49;22.80;99.90
25068;DHT22;13063;49.648;10.692;2022-08-19T14:14:15;22.60;99.90
25068;DHT22;13063;49.648;10.692;2022-08-19T14:16:41;22.40;99.90
25068;DHT22;13063;49.648;10.692;2022-08-19T14:19:07;22.30;99.90
25068;DHT22;13063;49.648;10.692;2022-08-19T14:21:33;22.10;99.90
25068;DHT22;13063;49.648;10.692;2022-08-19T14:23:59;21.90;99.90
25068;DHT22;13063;49.648;10.692;2022-08-19T14:26:25;21.80;99.90
25068;DHT22;13063;49.648;10.692;2022-08-19T14:28:51;21.70;99.90
25068;DHT22;13063;49.648;10.692;2022-08-19T14:31:17;21.60;99.90
25068;DHT22;13063;49.648;10.692;2022-08-19T14:33:47;21.70;99.90
25068;DHT22;13063;49.648;10.692;2022-08-19T14:36:12;21.60;99.90
25068;DHT22;13063;49.648;10.692;2022-08-19T14:38:38;21.70;99.90
25068;DHT22;13063;49.648;10.692;2022-08-19T14:41:17;21.60;99.90
25068;DHT22;13063;49.648;10.692;2022-08-19T14:43:45;21.30;99.90
25068;DHT22;13063;49.648;10.692;2022-08-19T14:46:12;21.30;99.90
25068;DHT22;13063;49.648;10.692;2022-08-19T14:48:38;21.20;99.90
25068;DHT22;13063;49.648;10.692;2022-08-19T14:51:04;21.20;99.90
25068;DHT22;13063;49.648;10.692;2022-08-19T14:53:30;21.10;99.90
25068;DHT22;13063;49.648;10.692;2022-08-19T14:55:56;21.10;99.90
25068;DHT22;13063;49.648;10.692;2022-08-19T14:58:21;21.10;99.90
25068;DHT22;13063;49.648;10.692;2022-08-19T15:00:47;21.00;99.90
25068;DHT22;13063;49.648;10.692;2022-08-19T15:03:13;21.00;99.90
25068;DHT22;13063;49.648;10.692;2022-08-19T15:05:38;21.00;99.90
25068;DHT22;13063;49.648;10.692;2022-08-19T15:08:04;21.00;99.90
25068;DHT22;13063;49.648;10.692;2022-08-19T15:10:30;21.10;99.90
25068;DHT22;13063;49.648;10.692;2022-08-19T15:12:56;21.00;99.90
25068;DHT22;13063;49.648;10.692;2022-08-19T15:15:21;21.10;99.90
25068;DHT22;13063;49.648;10.692;2022-08-19T15:17:47;21.30;99.90
25068;DHT22;13063;49.648;10.692;2022-08-19T15:20:14;21.40;99.90
25068;DHT22;13063;49.648;10.692;2022-08-19T15:22:40;21.50;99.90
25068;DHT22;13063;49.648;10.692;2022-08-19T15:25:07;21.50;99.90
25068;DHT22;13063;49.648;10.692;2022-08-19T15:27:33;21.40;99.90